大連 の空港の天気 - METARとTAF

大連周水子国際空港 ( ZYTL / DLC ) - 中国 遼寧省大連市
飛行場実況気象(Metar)
観測時間02/06 04:00 CST (02/05 20:00 UTC)
風向・風速不定 1m/s
視程8000m
天気現象
なし
気温-3℃
湿度74%
気圧1022hPa
METARZYTL 052000Z VRB01MPS 8000 NSC M03/M07 Q1022 NOSIG
過去の天気等 Google飛行場航空写真 Wunderground天気予報

過去48時間のMETAR

飛行場予報(TAF)
発表時間: 2/05 23:01 CST (2/05 15:01 UTC)
予報対象時間: 6日2時 CST ~ 7日2時 CST
風向・風速北 4m/s
視程4000m
天気現象
なし
6日2時 CST ~ 6日8時 CST に一時的に
視程2000m
TAF ZYTL 051501Z 0518/0618 36004MPS 4000 FU NSC TX03/0606Z TNM04/0522Z
TEMPO 0518/0524 2000